Airfield :
LOGIN :

Register | Disclaimer

   EN    FR    IT 

 










Legend :    VFR   Marginal VFR   IFR   Intensive IFR   Very Intensive IFR
Visi :
Ceiling :
>= 8 km
>= 3000ft
5 to 8 km
1000 to 3000 ft
1500m to 5 km
500 to 1000 ft
800 to 1500m
200 to 500 ft
< 800m
< 200 ft
Symbols :   Thunderstorms  Fog  Heavy snow  Heavy precipitations  Wind > 20 kt
SIGMETs :     Misc.  Thunderstorms  Icing  Turbulence  Mountain Waves  Volcanic Ashes






- Airport Elevation : 228 ft
- IATA code : OPO


LPPR - Porto Fr. Sa Carneiro

CURRENT METAR :
  • 210030Z 07005KT 040V110 CAVOK 10/07 Q1027

EXPIRED METARs :
  • 210000Z 06005KT CAVOK 11/08 Q1027
  • 202330Z 04003KT 360V110 CAVOK 07/07 Q1027
  • 202300Z 06003KT 010V090 CAVOK 08/07 Q1026
  • 202230Z 01003KT 340V060 CAVOK 09/07 Q1026
  • 202200Z 36004KT CAVOK 09/08 Q1026

TAF TAF LPPR
Valid from the 21 at 00:00 until the 22 at 00:00 UTC


202300Z 2100/2124 08008KT CAVOK
BECMG 2115/2118 34007KT
BECMG 2122/2124 08007KT



MET'MAP, your aeronautical weather chart ! - Copyright ORBIFLY December 2007 - Disclaimer

ORBIFLY MET'MAP TEAM :

Programming & Development : Alexandra Zaïnal
Concept & original design : Baudouin d'Aumeries
Assistance for programming : Marc-Olivier Méhu
Technical & hardware support : Manuel Goepfert

Contact : metmap@orbifly.com




SOURCES & CREDITS :

   NOAA